sensor_id;sensor_type;location;lat;lon;timestamp;P1;durP1;ratioP1;P2;durP2;ratioP2
21681;SDS011;11002;48.256;10.084;2024-01-15T00:00:38;15.05;;;5.88;;
21681;SDS011;11002;48.256;10.084;2024-01-15T00:03:05;17.10;;;5.78;;
21681;SDS011;11002;48.256;10.084;2024-01-15T00:05:32;13.02;;;5.32;;
21681;SDS011;11002;48.256;10.084;2024-01-15T00:08:01;10.27;;;5.57;;
21681;SDS011;11002;48.256;10.084;2024-01-15T00:10:28;10.77;;;4.50;;
21681;SDS011;11002;48.256;10.084;2024-01-15T00:12:55;12.57;;;5.35;;
21681;SDS011;11002;48.256;10.084;2024-01-15T00:15:22;11.45;;;5.55;;
21681;SDS011;11002;48.256;10.084;2024-01-15T00:17:50;14.35;;;6.15;;
21681;SDS011;11002;48.256;10.084;2024-01-15T00:20:17;14.05;;;5.05;;
21681;SDS011;11002;48.256;10.084;2024-01-15T00:22:44;14.73;;;5.13;;
21681;SDS011;11002;48.256;10.084;2024-01-15T00:25:13;14.02;;;5.38;;
21681;SDS011;11002;48.256;10.084;2024-01-15T00:27:40;13.60;;;5.35;;
21681;SDS011;11002;48.256;10.084;2024-01-15T00:30:08;12.18;;;4.50;;
21681;SDS011;11002;48.256;10.084;2024-01-15T00:32:36;12.15;;;5.30;;
21681;SDS011;11002;48.256;10.084;2024-01-15T00:35:03;14.23;;;5.93;;
21681;SDS011;11002;48.256;10.084;2024-01-15T00:37:32;13.30;;;5.28;;
21681;SDS011;11002;48.256;10.084;2024-01-15T00:39:59;12.15;;;5.80;;
21681;SDS011;11002;48.256;10.084;2024-01-15T00:42:27;12.90;;;5.97;;
21681;SDS011;11002;48.256;10.084;2024-01-15T00:44:55;28.88;;;9.95;;
21681;SDS011;11002;48.256;10.084;2024-01-15T00:47:22;15.60;;;5.78;;
21681;SDS011;11002;48.256;10.084;2024-01-15T00:49:49;16.67;;;6.00;;
21681;SDS011;11002;48.256;10.084;2024-01-15T00:52:16;12.63;;;6.00;;
21681;SDS011;11002;48.256;10.084;2024-01-15T00:54:44;12.50;;;5.70;;
21681;SDS011;11002;48.256;10.084;2024-01-15T00:57:11;14.70;;;6.60;;
21681;SDS011;11002;48.256;10.084;2024-01-15T00:59:39;13.32;;;5.90;;
21681;SDS011;11002;48.256;10.084;2024-01-15T01:02:07;12.13;;;5.85;;
21681;SDS011;11002;48.256;10.084;2024-01-15T01:04:34;12.20;;;5.63;;
21681;SDS011;11002;48.256;10.084;2024-01-15T01:07:01;14.93;;;6.10;;
21681;SDS011;11002;48.256;10.084;2024-01-15T01:09:28;15.73;;;5.70;;
21681;SDS011;11002;48.256;10.084;2024-01-15T01:11:55;14.55;;;5.85;;
21681;SDS011;11002;48.256;10.084;2024-01-15T01:14:22;16.02;;;5.78;;
21681;SDS011;11002;48.256;10.084;2024-01-15T01:16:51;13.00;;;6.55;;
21681;SDS011;11002;48.256;10.084;2024-01-15T01:19:18;16.80;;;6.18;;
21681;SDS011;11002;48.256;10.084;2024-01-15T01:21:46;13.35;;;5.22;;
21681;SDS011;11002;48.256;10.084;2024-01-15T01:24:13;14.70;;;6.25;;
21681;SDS011;11002;48.256;10.084;2024-01-15T01:26:40;12.85;;;5.65;;
21681;SDS011;11002;48.256;10.084;2024-01-15T01:29:07;13.65;;;5.82;;
21681;SDS011;11002;48.256;10.084;2024-01-15T01:31:35;13.95;;;6.40;;
21681;SDS011;11002;48.256;10.084;2024-01-15T01:34:04;15.55;;;4.93;;
21681;SDS011;11002;48.256;10.084;2024-01-15T01:36:31;14.55;;;5.85;;
21681;SDS011;11002;48.256;10.084;2024-01-15T01:38:58;11.23;;;5.93;;
21681;SDS011;11002;48.256;10.084;2024-01-15T01:41:25;11.55;;;5.47;;
21681;SDS011;11002;48.256;10.084;2024-01-15T01:43:52;16.38;;;5.55;;
21681;SDS011;11002;48.256;10.084;2024-01-15T01:46:20;13.07;;;6.68;;
21681;SDS011;11002;48.256;10.084;2024-01-15T01:48:47;13.07;;;5.78;;
21681;SDS011;11002;48.256;10.084;2024-01-15T01:51:16;14.32;;;6.40;;
21681;SDS011;11002;48.256;10.084;2024-01-15T01:53:44;11.20;;;5.97;;
21681;SDS011;11002;48.256;10.084;2024-01-15T01:56:12;12.60;;;5.03;;
21681;SDS011;11002;48.256;10.084;2024-01-15T01:58:40;15.25;;;6.10;;
21681;SDS011;11002;48.256;10.084;2024-01-15T02:01:08;12.63;;;5.38;;
21681;SDS011;11002;48.256;10.084;2024-01-15T02:03:35;15.40;;;5.57;;
21681;SDS011;11002;48.256;10.084;2024-01-15T02:06:03;12.50;;;5.97;;
21681;SDS011;11002;48.256;10.084;2024-01-15T02:08:31;14.25;;;5.72;;
21681;SDS011;11002;48.256;10.084;2024-01-15T02:11:00;14.10;;;6.28;;
21681;SDS011;11002;48.256;10.084;2024-01-15T02:13:27;10.63;;;4.95;;
21681;SDS011;11002;48.256;10.084;2024-01-15T02:15:55;11.13;;;5.35;;
21681;SDS011;11002;48.256;10.084;2024-01-15T02:18:22;17.92;;;6.50;;
21681;SDS011;11002;48.256;10.084;2024-01-15T02:20:49;12.80;;;5.85;;
21681;SDS011;11002;48.256;10.084;2024-01-15T02:23:18;13.02;;;5.63;;
21681;SDS011;11002;48.256;10.084;2024-01-15T02:25:45;8.13;;;4.65;;
21681;SDS011;11002;48.256;10.084;2024-01-15T02:28:13;11.35;;;5.00;;
21681;SDS011;11002;48.256;10.084;2024-01-15T02:30:42;9.93;;;4.45;;
21681;SDS011;11002;48.256;10.084;2024-01-15T02:33:10;12.38;;;5.75;;
21681;SDS011;11002;48.256;10.084;2024-01-15T02:35:38;7.88;;;4.25;;
21681;SDS011;11002;48.256;10.084;2024-01-15T02:38:05;11.45;;;4.38;;
21681;SDS011;11002;48.256;10.084;2024-01-15T02:40:34;7.68;;;4.10;;
21681;SDS011;11002;48.256;10.084;2024-01-15T02:43:02;11.98;;;4.70;;
21681;SDS011;11002;48.256;10.084;2024-01-15T02:45:29;10.15;;;4.57;;
21681;SDS011;11002;48.256;10.084;2024-01-15T02:47:56;11.63;;;4.72;;
21681;SDS011;11002;48.256;10.084;2024-01-15T02:50:24;7.32;;;4.00;;
21681;SDS011;11002;48.256;10.084;2024-01-15T02:52:51;9.90;;;4.57;;
21681;SDS011;11002;48.256;10.084;2024-01-15T02:55:18;6.65;;;4.03;;
21681;SDS011;11002;48.256;10.084;2024-01-15T02:57:47;9.32;;;4.22;;
21681;SDS011;11002;48.256;10.084;2024-01-15T03:00:14;9.07;;;3.85;;
21681;SDS011;11002;48.256;10.084;2024-01-15T03:02:44;9.90;;;4.72;;
21681;SDS011;11002;48.256;10.084;2024-01-15T03:05:11;6.85;;;3.55;;
21681;SDS011;11002;48.256;10.084;2024-01-15T03:07:39;11.68;;;4.82;;
21681;SDS011;11002;48.256;10.084;2024-01-15T03:10:06;11.25;;;4.97;;
21681;SDS011;11002;48.256;10.084;2024-01-15T03:12:34;11.13;;;3.85;;
21681;SDS011;11002;48.256;10.084;2024-01-15T03:15:03;8.20;;;4.18;;
21681;SDS011;11002;48.256;10.084;2024-01-15T03:17:31;8.88;;;4.25;;
21681;SDS011;11002;48.256;10.084;2024-01-15T03:19:58;9.63;;;4.00;;
21681;SDS011;11002;48.256;10.084;2024-01-15T03:22:25;7.28;;;3.17;;
21681;SDS011;11002;48.256;10.084;2024-01-15T03:24:53;9.93;;;4.00;;
21681;SDS011;11002;48.256;10.084;2024-01-15T03:27:20;8.50;;;3.80;;
21681;SDS011;11002;48.256;10.084;2024-01-15T03:29:47;5.75;;;3.10;;
21681;SDS011;11002;48.256;10.084;2024-01-15T03:32:16;3.28;;;1.98;;
21681;SDS011;11002;48.256;10.084;2024-01-15T03:34:43;7.25;;;3.78;;
21681;SDS011;11002;48.256;10.084;2024-01-15T03:37:10;6.47;;;3.15;;
21681;SDS011;11002;48.256;10.084;2024-01-15T03:39:38;11.40;;;3.92;;
21681;SDS011;11002;48.256;10.084;2024-01-15T03:42:05;9.15;;;3.58;;
21681;SDS011;11002;48.256;10.084;2024-01-15T03:44:33;5.53;;;3.25;;
21681;SDS011;11002;48.256;10.084;2024-01-15T03:47:00;5.85;;;3.42;;
21681;SDS011;11002;48.256;10.084;2024-01-15T03:49:29;5.80;;;3.30;;
21681;SDS011;11002;48.256;10.084;2024-01-15T03:51:56;6.95;;;4.07;;
21681;SDS011;11002;48.256;10.084;2024-01-15T03:54:23;9.85;;;3.40;;
21681;SDS011;11002;48.256;10.084;2024-01-15T03:56:51;5.70;;;2.92;;
21681;SDS011;11002;48.256;10.084;2024-01-15T03:59:18;11.73;;;3.70;;
21681;SDS011;11002;48.256;10.084;2024-01-15T04:01:48;9.02;;;3.15;;
21681;SDS011;11002;48.256;10.084;2024-01-15T04:04:16;7.35;;;2.97;;
21681;SDS011;11002;48.256;10.084;2024-01-15T04:06:45;10.57;;;3.70;;
21681;SDS011;11002;48.256;10.084;2024-01-15T04:09:12;5.82;;;2.80;;
21681;SDS011;11002;48.256;10.084;2024-01-15T04:11:39;7.60;;;3.22;;
21681;SDS011;11002;48.256;10.084;2024-01-15T04:14:07;31.13;;;10.77;;
21681;SDS011;11002;48.256;10.084;2024-01-15T04:16:34;5.82;;;2.95;;
21681;SDS011;11002;48.256;10.084;2024-01-15T04:19:01;3.60;;;2.53;;
21681;SDS011;11002;48.256;10.084;2024-01-15T04:21:28;4.50;;;2.60;;
21681;SDS011;11002;48.256;10.084;2024-01-15T04:23:57;5.72;;;2.92;;
21681;SDS011;11002;48.256;10.084;2024-01-15T04:26:24;3.65;;;1.95;;
21681;SDS011;11002;48.256;10.084;2024-01-15T04:28:51;5.25;;;2.20;;
21681;SDS011;11002;48.256;10.084;2024-01-15T04:31:22;3.67;;;1.75;;
21681;SDS011;11002;48.256;10.084;2024-01-15T04:33:50;4.00;;;1.77;;
21681;SDS011;11002;48.256;10.084;2024-01-15T04:36:17;2.03;;;1.20;;
21681;SDS011;11002;48.256;10.084;2024-01-15T04:38:45;3.47;;;1.60;;
21681;SDS011;11002;48.256;10.084;2024-01-15T04:41:13;6.55;;;2.35;;
21681;SDS011;11002;48.256;10.084;2024-01-15T04:43:42;5.72;;;1.60;;
21681;SDS011;11002;48.256;10.084;2024-01-15T04:46:09;6.03;;;3.15;;
21681;SDS011;11002;48.256;10.084;2024-01-15T04:48:37;5.22;;;2.65;;
21681;SDS011;11002;48.256;10.084;2024-01-15T04:51:04;3.42;;;2.22;;
21681;SDS011;11002;48.256;10.084;2024-01-15T04:53:32;6.25;;;1.80;;
21681;SDS011;11002;48.256;10.084;2024-01-15T04:56:01;3.33;;;1.92;;
21681;SDS011;11002;48.256;10.084;2024-01-15T04:58:29;3.30;;;1.58;;
21681;SDS011;11002;48.256;10.084;2024-01-15T05:00:57;2.60;;;1.05;;
21681;SDS011;11002;48.256;10.084;2024-01-15T05:03:24;3.30;;;1.58;;
21681;SDS011;11002;48.256;10.084;2024-01-15T05:05:51;4.40;;;1.88;;
21681;SDS011;11002;48.256;10.084;2024-01-15T05:08:18;4.53;;;2.08;;
21681;SDS011;11002;48.256;10.084;2024-01-15T05:10:46;4.30;;;1.70;;
21681;SDS011;11002;48.256;10.084;2024-01-15T05:13:13;2.38;;;1.33;;
21681;SDS011;11002;48.256;10.084;2024-01-15T05:15:42;3.58;;;2.05;;
21681;SDS011;11002;48.256;10.084;2024-01-15T05:18:09;3.67;;;1.45;;
21681;SDS011;11002;48.256;10.084;2024-01-15T05:20:37;5.93;;;2.05;;
21681;SDS011;11002;48.256;10.084;2024-01-15T05:23:04;3.47;;;2.00;;
21681;SDS011;11002;48.256;10.084;2024-01-15T05:25:31;6.95;;;2.60;;
21681;SDS011;11002;48.256;10.084;2024-01-15T05:27:59;5.47;;;2.97;;
21681;SDS011;11002;48.256;10.084;2024-01-15T05:30:26;5.38;;;2.50;;
21681;SDS011;11002;48.256;10.084;2024-01-15T05:32:55;5.93;;;2.70;;
21681;SDS011;11002;48.256;10.084;2024-01-15T05:35:22;3.50;;;2.03;;
21681;SDS011;11002;48.256;10.084;2024-01-15T05:37:50;5.45;;;2.58;;
21681;SDS011;11002;48.256;10.084;2024-01-15T05:40:17;6.30;;;2.92;;
21681;SDS011;11002;48.256;10.084;2024-01-15T05:42:44;7.00;;;2.75;;
21681;SDS011;11002;48.256;10.084;2024-01-15T05:45:11;7.07;;;2.47;;
21681;SDS011;11002;48.256;10.084;2024-01-15T05:47:39;5.13;;;2.47;;
21681;SDS011;11002;48.256;10.084;2024-01-15T05:50:07;7.03;;;3.38;;
21681;SDS011;11002;48.256;10.084;2024-01-15T05:52:35;8.55;;;2.60;;
21681;SDS011;11002;48.256;10.084;2024-01-15T05:55:02;6.38;;;2.65;;
21681;SDS011;11002;48.256;10.084;2024-01-15T05:57:30;9.38;;;2.80;;
21681;SDS011;11002;48.256;10.084;2024-01-15T05:59:57;8.90;;;2.85;;
21681;SDS011;11002;48.256;10.084;2024-01-15T06:02:24;5.25;;;2.42;;
21681;SDS011;11002;48.256;10.084;2024-01-15T06:04:51;8.60;;;3.53;;
21681;SDS011;11002;48.256;10.084;2024-01-15T06:07:20;7.75;;;3.33;;
21681;SDS011;11002;48.256;10.084;2024-01-15T06:09:48;4.85;;;2.67;;
21681;SDS011;11002;48.256;10.084;2024-01-15T06:12:15;7.95;;;3.33;;
21681;SDS011;11002;48.256;10.084;2024-01-15T06:14:42;7.53;;;3.10;;
21681;SDS011;11002;48.256;10.084;2024-01-15T06:17:09;5.43;;;2.65;;
21681;SDS011;11002;48.256;10.084;2024-01-15T06:19:37;10.45;;;4.50;;
21681;SDS011;11002;48.256;10.084;2024-01-15T06:22:04;6.07;;;3.17;;
21681;SDS011;11002;48.256;10.084;2024-01-15T06:24:33;10.02;;;3.53;;
21681;SDS011;11002;48.256;10.084;2024-01-15T06:27:03;5.05;;;2.58;;
21681;SDS011;11002;48.256;10.084;2024-01-15T06:29:31;4.63;;;2.47;;
21681;SDS011;11002;48.256;10.084;2024-01-15T06:31:58;6.03;;;3.28;;
21681;SDS011;11002;48.256;10.084;2024-01-15T06:34:25;6.32;;;2.92;;
21681;SDS011;11002;48.256;10.084;2024-01-15T06:36:53;5.65;;;2.80;;
21681;SDS011;11002;48.256;10.084;2024-01-15T06:39:20;9.48;;;3.55;;
21681;SDS011;11002;48.256;10.084;2024-01-15T06:41:48;6.72;;;3.20;;
21681;SDS011;11002;48.256;10.084;2024-01-15T06:44:16;9.32;;;3.30;;
21681;SDS011;11002;48.256;10.084;2024-01-15T06:46:43;8.25;;;3.78;;
21681;SDS011;11002;48.256;10.084;2024-01-15T06:49:10;5.97;;;2.97;;
21681;SDS011;11002;48.256;10.084;2024-01-15T06:51:38;10.02;;;3.88;;
21681;SDS011;11002;48.256;10.084;2024-01-15T06:54:05;8.27;;;3.78;;
21681;SDS011;11002;48.256;10.084;2024-01-15T06:56:32;5.03;;;2.70;;
21681;SDS011;11002;48.256;10.084;2024-01-15T06:59:01;9.82;;;3.88;;
21681;SDS011;11002;48.256;10.084;2024-01-15T07:01:29;6.78;;;3.55;;
21681;SDS011;11002;48.256;10.084;2024-01-15T07:03:56;6.72;;;2.92;;
21681;SDS011;11002;48.256;10.084;2024-01-15T07:06:23;4.85;;;2.88;;
21681;SDS011;11002;48.256;10.084;2024-01-15T07:08:50;8.88;;;3.20;;
21681;SDS011;11002;48.256;10.084;2024-01-15T07:11:18;7.38;;;3.95;;
21681;SDS011;11002;48.256;10.084;2024-01-15T07:13:45;7.65;;;3.65;;
21681;SDS011;11002;48.256;10.084;2024-01-15T07:16:13;7.38;;;3.80;;
21681;SDS011;11002;48.256;10.084;2024-01-15T07:18:41;4.88;;;2.75;;
21681;SDS011;11002;48.256;10.084;2024-01-15T07:21:08;4.70;;;2.90;;
21681;SDS011;11002;48.256;10.084;2024-01-15T07:23:35;6.25;;;2.95;;
21681;SDS011;11002;48.256;10.084;2024-01-15T07:26:03;7.65;;;3.15;;
21681;SDS011;11002;48.256;10.084;2024-01-15T07:28:35;6.57;;;3.25;;
21681;SDS011;11002;48.256;10.084;2024-01-15T07:31:02;7.07;;;3.30;;
21681;SDS011;11002;48.256;10.084;2024-01-15T07:33:33;6.47;;;3.10;;
21681;SDS011;11002;48.256;10.084;2024-01-15T07:36:00;4.32;;;2.47;;
21681;SDS011;11002;48.256;10.084;2024-01-15T07:38:28;4.85;;;3.38;;
21681;SDS011;11002;48.256;10.084;2024-01-15T07:40:55;5.70;;;2.95;;
21681;SDS011;11002;48.256;10.084;2024-01-15T07:43:22;9.20;;;3.33;;
21681;SDS011;11002;48.256;10.084;2024-01-15T07:45:49;4.75;;;2.63;;
21681;SDS011;11002;48.256;10.084;2024-01-15T07:48:17;6.80;;;2.55;;
21681;SDS011;11002;48.256;10.084;2024-01-15T07:50:45;8.20;;;2.58;;
21681;SDS011;11002;48.256;10.084;2024-01-15T07:53:12;7.75;;;2.97;;
21681;SDS011;11002;48.256;10.084;2024-01-15T07:55:40;7.13;;;3.20;;
21681;SDS011;11002;48.256;10.084;2024-01-15T07:58:07;4.45;;;2.83;;
21681;SDS011;11002;48.256;10.084;2024-01-15T08:00:34;6.60;;;3.08;;
21681;SDS011;11002;48.256;10.084;2024-01-15T08:03:01;8.38;;;3.08;;
21681;SDS011;11002;48.256;10.084;2024-01-15T08:05:29;6.03;;;3.30;;
21681;SDS011;11002;48.256;10.084;2024-01-15T08:07:58;3.10;;;1.88;;
21681;SDS011;11002;48.256;10.084;2024-01-15T08:10:25;5.05;;;2.55;;
21681;SDS011;11002;48.256;10.084;2024-01-15T08:12:52;5.88;;;2.75;;
21681;SDS011;11002;48.256;10.084;2024-01-15T08:15:20;7.35;;;3.03;;
21681;SDS011;11002;48.256;10.084;2024-01-15T08:17:47;5.43;;;2.15;;
21681;SDS011;11002;48.256;10.084;2024-01-15T08:20:14;5.28;;;2.70;;
21681;SDS011;11002;48.256;10.084;2024-01-15T08:22:42;5.10;;;2.20;;
21681;SDS011;11002;48.256;10.084;2024-01-15T08:25:10;3.17;;;2.03;;
21681;SDS011;11002;48.256;10.084;2024-01-15T08:27:38;5.53;;;2.17;;
21681;SDS011;11002;48.256;10.084;2024-01-15T08:30:06;4.90;;;2.28;;
21681;SDS011;11002;48.256;10.084;2024-01-15T08:32:34;3.47;;;1.90;;
21681;SDS011;11002;48.256;10.084;2024-01-15T08:35:06;3.72;;;2.05;;
21681;SDS011;11002;48.256;10.084;2024-01-15T08:37:33;3.03;;;1.98;;
21681;SDS011;11002;48.256;10.084;2024-01-15T08:40:00;4.53;;;1.85;;
21681;SDS011;11002;48.256;10.084;2024-01-15T08:42:30;2.13;;;1.45;;
21681;SDS011;11002;48.256;10.084;2024-01-15T08:44:57;2.95;;;1.70;;
21681;SDS011;11002;48.256;10.084;2024-01-15T08:47:24;4.28;;;1.88;;
21681;SDS011;11002;48.256;10.084;2024-01-15T08:49:52;2.78;;;1.45;;
21681;SDS011;11002;48.256;10.084;2024-01-15T08:52:19;2.42;;;1.75;;
21681;SDS011;11002;48.256;10.084;2024-01-15T08:54:47;2.47;;;1.50;;
21681;SDS011;11002;48.256;10.084;2024-01-15T08:57:14;1.83;;;1.23;;
21681;SDS011;11002;48.256;10.084;2024-01-15T08:59:42;2.08;;;1.60;;
21681;SDS011;11002;48.256;10.084;2024-01-15T09:02:10;1.90;;;1.45;;
21681;SDS011;11002;48.256;10.084;2024-01-15T09:04:37;3.97;;;1.60;;
21681;SDS011;11002;48.256;10.084;2024-01-15T09:07:05;2.15;;;1.33;;
21681;SDS011;11002;48.256;10.084;2024-01-15T09:09:32;2.55;;;1.55;;
21681;SDS011;11002;48.256;10.084;2024-01-15T09:11:59;2.53;;;1.20;;
21681;SDS011;11002;48.256;10.084;2024-01-15T09:14:27;1.75;;;1.30;;
21681;SDS011;11002;48.256;10.084;2024-01-15T09:16:55;3.28;;;1.27;;
21681;SDS011;11002;48.256;10.084;2024-01-15T09:19:23;2.80;;;1.38;;
21681;SDS011;11002;48.256;10.084;2024-01-15T09:21:52;2.97;;;1.02;;
21681;SDS011;11002;48.256;10.084;2024-01-15T09:24:20;1.77;;;0.90;;
21681;SDS011;11002;48.256;10.084;2024-01-15T09:26:50;1.60;;;0.82;;
21681;SDS011;11002;48.256;10.084;2024-01-15T09:29:20;1.95;;;0.98;;
21681;SDS011;11002;48.256;10.084;2024-01-15T09:31:48;1.33;;;0.90;;
21681;SDS011;11002;48.256;10.084;2024-01-15T09:34:18;1.23;;;1.10;;
21681;SDS011;11002;48.256;10.084;2024-01-15T09:36:48;1.83;;;1.08;;
21681;SDS011;11002;48.256;10.084;2024-01-15T09:39:15;1.65;;;0.98;;
21681;SDS011;11002;48.256;10.084;2024-01-15T09:41:44;2.50;;;1.10;;
21681;SDS011;11002;48.256;10.084;2024-01-15T09:44:13;2.28;;;1.30;;
21681;SDS011;11002;48.256;10.084;2024-01-15T09:46:41;1.45;;;1.00;;
21681;SDS011;11002;48.256;10.084;2024-01-15T09:49:12;1.55;;;0.90;;
21681;SDS011;11002;48.256;10.084;2024-01-15T09:51:42;1.77;;;0.77;;
21681;SDS011;11002;48.256;10.084;2024-01-15T09:54:10;1.05;;;0.75;;
21681;SDS011;11002;48.256;10.084;2024-01-15T09:56:42;2.63;;;0.70;;
21681;SDS011;11002;48.256;10.084;2024-01-15T09:59:14;1.00;;;0.80;;
21681;SDS011;11002;48.256;10.084;2024-01-15T10:01:44;2.58;;;0.85;;
21681;SDS011;11002;48.256;10.084;2024-01-15T10:04:13;0.60;;;0.50;;
21681;SDS011;11002;48.256;10.084;2024-01-15T10:06:45;2.15;;;0.95;;
21681;SDS011;11002;48.256;10.084;2024-01-15T10:09:17;1.07;;;0.90;;
21681;SDS011;11002;48.256;10.084;2024-01-15T10:11:46;1.02;;;0.60;;
21681;SDS011;11002;48.256;10.084;2024-01-15T10:14:13;1.15;;;0.77;;
21681;SDS011;11002;48.256;10.084;2024-01-15T10:16:40;1.75;;;1.00;;
21681;SDS011;11002;48.256;10.084;2024-01-15T10:19:08;0.68;;;0.60;;
21681;SDS011;11002;48.256;10.084;2024-01-15T10:21:37;1.10;;;0.80;;
21681;SDS011;11002;48.256;10.084;2024-01-15T10:24:06;1.10;;;0.88;;
21681;SDS011;11002;48.256;10.084;2024-01-15T10:26:33;1.88;;;1.00;;
21681;SDS011;11002;48.256;10.084;2024-01-15T10:29:00;0.98;;;0.73;;
21681;SDS011;11002;48.256;10.084;2024-01-15T10:31:28;3.35;;;0.70;;
21681;SDS011;11002;48.256;10.084;2024-01-15T10:33:56;2.15;;;1.10;;
21681;SDS011;11002;48.256;10.084;2024-01-15T10:36:39;2.88;;;1.30;;
21681;SDS011;11002;48.256;10.084;2024-01-15T10:39:08;3.83;;;1.30;;
21681;SDS011;11002;48.256;10.084;2024-01-15T10:41:40;1.10;;;1.00;;
21681;SDS011;11002;48.256;10.084;2024-01-15T10:44:08;3.22;;;1.02;;
21681;SDS011;11002;48.256;10.084;2024-01-15T10:46:37;2.33;;;1.30;;
21681;SDS011;11002;48.256;10.084;2024-01-15T10:49:05;3.85;;;1.98;;
21681;SDS011;11002;48.256;10.084;2024-01-15T10:51:32;2.60;;;1.60;;
21681;SDS011;11002;48.256;10.084;2024-01-15T10:54:00;5.55;;;1.40;;
21681;SDS011;11002;48.256;10.084;2024-01-15T10:56:29;3.22;;;1.88;;
21681;SDS011;11002;48.256;10.084;2024-01-15T10:58:58;2.08;;;1.50;;
21681;SDS011;11002;48.256;10.084;2024-01-15T11:01:26;2.13;;;1.40;;
21681;SDS011;11002;48.256;10.084;2024-01-15T11:03:54;4.75;;;2.80;;
21681;SDS011;11002;48.256;10.084;2024-01-15T11:06:23;5.32;;;2.38;;
21681;SDS011;11002;48.256;10.084;2024-01-15T11:08:51;5.63;;;2.63;;
21681;SDS011;11002;48.256;10.084;2024-01-15T11:11:20;3.45;;;1.90;;
21681;SDS011;11002;48.256;10.084;2024-01-15T11:13:50;3.45;;;1.63;;
21681;SDS011;11002;48.256;10.084;2024-01-15T11:16:17;3.25;;;1.70;;
21681;SDS011;11002;48.256;10.084;2024-01-15T11:21:33;3.80;;;2.08;;
21681;SDS011;11002;48.256;10.084;2024-01-15T11:24:10;2.75;;;1.75;;
21681;SDS011;11002;48.256;10.084;2024-01-15T11:26:57;2.10;;;1.20;;
21681;SDS011;11002;48.256;10.084;2024-01-15T11:29:32;3.67;;;2.00;;
21681;SDS011;11002;48.256;10.084;2024-01-15T11:32:04;5.63;;;1.83;;
21681;SDS011;11002;48.256;10.084;2024-01-15T11:37:20;5.78;;;1.88;;
21681;SDS011;11002;48.256;10.084;2024-01-15T11:39:50;4.78;;;2.25;;
21681;SDS011;11002;48.256;10.084;2024-01-15T11:42:21;3.60;;;1.88;;
21681;SDS011;11002;48.256;10.084;2024-01-15T11:44:50;4.90;;;2.40;;
21681;SDS011;11002;48.256;10.084;2024-01-15T11:47:27;3.85;;;2.30;;
21681;SDS011;11002;48.256;10.084;2024-01-15T11:50:19;4.20;;;2.03;;
21681;SDS011;11002;48.256;10.084;2024-01-15T11:52:50;5.13;;;2.55;;
21681;SDS011;11002;48.256;10.084;2024-01-15T11:55:26;4.88;;;2.38;;
21681;SDS011;11002;48.256;10.084;2024-01-15T11:57:55;3.85;;;2.50;;
21681;SDS011;11002;48.256;10.084;2024-01-15T12:00:27;3.97;;;2.38;;
21681;SDS011;11002;48.256;10.084;2024-01-15T12:02:58;4.88;;;2.53;;
21681;SDS011;11002;48.256;10.084;2024-01-15T12:05:27;5.63;;;2.53;;
21681;SDS011;11002;48.256;10.084;2024-01-15T12:07:57;5.30;;;2.88;;
21681;SDS011;11002;48.256;10.084;2024-01-15T12:10:25;7.43;;;3.08;;
21681;SDS011;11002;48.256;10.084;2024-01-15T12:12:59;3.78;;;2.08;;
21681;SDS011;11002;48.256;10.084;2024-01-15T12:15:28;4.63;;;2.17;;
21681;SDS011;11002;48.256;10.084;2024-01-15T12:17:56;3.70;;;2.13;;
21681;SDS011;11002;48.256;10.084;2024-01-15T12:20:25;4.45;;;2.15;;
21681;SDS011;11002;48.256;10.084;2024-01-15T12:22:53;4.00;;;1.92;;
21681;SDS011;11002;48.256;10.084;2024-01-15T12:25:21;5.13;;;2.28;;
21681;SDS011;11002;48.256;10.084;2024-01-15T12:27:49;7.80;;;2.47;;
21681;SDS011;11002;48.256;10.084;2024-01-15T12:30:16;5.13;;;2.58;;
21681;SDS011;11002;48.256;10.084;2024-01-15T12:32:45;4.80;;;2.70;;
21681;SDS011;11002;48.256;10.084;2024-01-15T12:35:13;4.55;;;2.40;;
21681;SDS011;11002;48.256;10.084;2024-01-15T12:37:42;5.40;;;2.60;;
21681;SDS011;11002;48.256;10.084;2024-01-15T12:40:11;6.32;;;2.28;;
21681;SDS011;11002;48.256;10.084;2024-01-15T12:42:40;4.60;;;2.22;;
21681;SDS011;11002;48.256;10.084;2024-01-15T12:45:08;5.45;;;2.85;;
21681;SDS011;11002;48.256;10.084;2024-01-15T12:47:38;6.38;;;2.75;;
21681;SDS011;11002;48.256;10.084;2024-01-15T12:50:07;5.47;;;2.80;;
21681;SDS011;11002;48.256;10.084;2024-01-15T12:52:35;6.20;;;2.65;;
21681;SDS011;11002;48.256;10.084;2024-01-15T12:55:04;7.40;;;3.70;;
21681;SDS011;11002;48.256;10.084;2024-01-15T12:57:32;5.32;;;3.00;;
21681;SDS011;11002;48.256;10.084;2024-01-15T13:00:00;5.80;;;2.63;;
21681;SDS011;11002;48.256;10.084;2024-01-15T13:02:29;5.45;;;3.28;;
21681;SDS011;11002;48.256;10.084;2024-01-15T13:04:56;6.00;;;2.90;;
21681;SDS011;11002;48.256;10.084;2024-01-15T13:07:27;5.88;;;2.85;;
21681;SDS011;11002;48.256;10.084;2024-01-15T13:09:54;11.63;;;3.50;;
21681;SDS011;11002;48.256;10.084;2024-01-15T13:12:21;9.13;;;4.15;;
21681;SDS011;11002;48.256;10.084;2024-01-15T13:14:49;5.40;;;3.17;;
21681;SDS011;11002;48.256;10.084;2024-01-15T13:17:16;7.28;;;3.30;;
21681;SDS011;11002;48.256;10.084;2024-01-15T13:19:43;6.65;;;2.90;;
21681;SDS011;11002;48.256;10.084;2024-01-15T13:22:10;7.05;;;3.58;;
21681;SDS011;11002;48.256;10.084;2024-01-15T13:24:40;7.95;;;3.65;;
21681;SDS011;11002;48.256;10.084;2024-01-15T13:27:08;10.25;;;3.85;;
21681;SDS011;11002;48.256;10.084;2024-01-15T13:29:35;8.65;;;4.25;;
21681;SDS011;11002;48.256;10.084;2024-01-15T13:32:03;6.70;;;3.47;;
21681;SDS011;11002;48.256;10.084;2024-01-15T13:34:31;6.03;;;2.92;;
21681;SDS011;11002;48.256;10.084;2024-01-15T13:36:58;7.10;;;3.05;;
21681;SDS011;11002;48.256;10.084;2024-01-15T13:39:25;6.55;;;2.90;;
21681;SDS011;11002;48.256;10.084;2024-01-15T13:41:54;6.72;;;2.65;;
21681;SDS011;11002;48.256;10.084;2024-01-15T13:44:21;7.15;;;2.60;;
21681;SDS011;11002;48.256;10.084;2024-01-15T13:46:49;5.82;;;3.38;;
21681;SDS011;11002;48.256;10.084;2024-01-15T13:49:18;6.82;;;3.35;;
21681;SDS011;11002;48.256;10.084;2024-01-15T13:51:45;7.53;;;3.80;;
21681;SDS011;11002;48.256;10.084;2024-01-15T13:54:12;9.80;;;3.05;;
21681;SDS011;11002;48.256;10.084;2024-01-15T13:56:39;6.82;;;2.95;;
21681;SDS011;11002;48.256;10.084;2024-01-15T13:59:09;6.03;;;2.95;;
21681;SDS011;11002;48.256;10.084;2024-01-15T14:01:36;6.47;;;2.55;;
21681;SDS011;11002;48.256;10.084;2024-01-15T14:04:03;11.13;;;4.05;;
21681;SDS011;11002;48.256;10.084;2024-01-15T14:06:30;5.90;;;3.00;;
21681;SDS011;11002;48.256;10.084;2024-01-15T14:08:58;5.25;;;2.78;;
21681;SDS011;11002;48.256;10.084;2024-01-15T14:11:25;4.97;;;2.78;;
21681;SDS011;11002;48.256;10.084;2024-01-15T14:13:53;5.57;;;2.80;;
21681;SDS011;11002;48.256;10.084;2024-01-15T14:16:21;5.28;;;2.63;;
21681;SDS011;11002;48.256;10.084;2024-01-15T14:18:49;4.78;;;2.00;;
21681;SDS011;11002;48.256;10.084;2024-01-15T14:21:16;4.60;;;2.40;;
21681;SDS011;11002;48.256;10.084;2024-01-15T14:23:46;2.20;;;1.70;;
21681;SDS011;11002;48.256;10.084;2024-01-15T14:26:16;3.40;;;1.90;;
21681;SDS011;11002;48.256;10.084;2024-01-15T14:28:44;3.03;;;2.08;;
21681;SDS011;11002;48.256;10.084;2024-01-15T14:31:14;3.17;;;1.70;;
21681;SDS011;11002;48.256;10.084;2024-01-15T14:33:45;3.28;;;1.77;;
21681;SDS011;11002;48.256;10.084;2024-01-15T14:36:12;6.90;;;1.67;;
21681;SDS011;11002;48.256;10.084;2024-01-15T14:38:41;2.70;;;1.50;;
21681;SDS011;11002;48.256;10.084;2024-01-15T14:41:08;3.50;;;1.60;;